createdAt,value
2023-12-16T00:00:45.174Z,87.24
2023-12-16T00:01:45.412Z,87.85
2023-12-16T00:02:44.654Z,87.96
2023-12-16T00:03:44.758Z,88.17
2023-12-16T00:04:44.654Z,87.96
2023-12-16T00:05:44.649Z,87.75
2023-12-16T00:06:44.642Z,87.96
2023-12-16T00:07:44.627Z,87.85
2023-12-16T00:08:44.582Z,88.17
2023-12-16T00:09:44.597Z,88.37
2023-12-16T00:10:44.563Z,88.06
2023-12-16T00:11:44.553Z,88.06
2023-12-16T00:12:44.554Z,87.96
2023-12-16T00:13:44.537Z,88.17
2023-12-16T00:14:44.529Z,88.17
2023-12-16T00:15:44.515Z,88.26
2023-12-16T00:16:44.495Z,88.06
2023-12-16T00:17:44.811Z,87.85
2023-12-16T00:18:44.593Z,87.34
2023-12-16T00:19:44.527Z,87.13
2023-12-16T00:20:44.455Z,86.82
2023-12-16T00:21:44.546Z,87.03
2023-12-16T00:22:44.495Z,87.03
2023-12-16T00:23:44.551Z,86.72
2023-12-16T00:24:44.508Z,86.61
2023-12-16T00:25:44.502Z,86.00
2023-12-16T00:26:44.458Z,85.69
2023-12-16T00:27:44.409Z,86.21
2023-12-16T00:28:44.367Z,86.00
2023-12-16T00:29:44.369Z,86.31
2023-12-16T00:30:44.467Z,87.03
2023-12-16T00:31:44.409Z,87.34
2023-12-16T00:32:44.380Z,87.24
2023-12-16T00:33:44.434Z,87.54
2023-12-16T00:34:44.338Z,87.85
2023-12-16T00:35:44.293Z,88.17
2023-12-16T00:36:44.453Z,88.20
2023-12-16T00:37:44.267Z,87.90
2023-12-16T00:38:44.257Z,88.20
2023-12-16T00:39:44.288Z,87.90
2023-12-16T00:40:44.255Z,87.99
2023-12-16T00:41:44.234Z,88.31
2023-12-16T00:42:44.233Z,88.62
2023-12-16T00:43:44.201Z,88.92
2023-12-16T00:44:44.201Z,88.92
2023-12-16T00:45:44.249Z,89.03
2023-12-16T00:46:44.167Z,89.34
2023-12-16T00:47:44.750Z,89.44
2023-12-16T00:48:44.223Z,89.44
2023-12-16T00:49:44.178Z,89.23
2023-12-16T00:50:44.116Z,88.92
2023-12-16T00:51:44.145Z,88.92
2023-12-16T00:52:44.131Z,88.41
2023-12-16T00:53:44.115Z,88.20
2023-12-16T00:54:44.140Z,87.17
2023-12-16T00:55:44.075Z,86.35
2023-12-16T00:56:44.073Z,86.55
2023-12-16T00:57:44.117Z,86.76
2023-12-16T00:58:44.037Z,86.66
2023-12-16T00:59:44.015Z,86.52
2023-12-16T01:00:44.112Z,86.31
2023-12-16T01:01:44.276Z,85.89
2023-12-16T01:02:43.990Z,85.28
2023-12-16T01:03:44.054Z,85.49
2023-12-16T01:04:44.047Z,85.28
2023-12-16T01:05:44.056Z,84.77
2023-12-16T01:06:44.232Z,85.17
2023-12-16T01:07:43.926Z,85.69
2023-12-16T01:08:43.933Z,85.49
2023-12-16T01:09:43.998Z,85.79
2023-12-16T01:10:44.255Z,86.31
2023-12-16T01:11:43.922Z,86.21
2023-12-16T01:12:43.929Z,86.52
2023-12-16T01:13:43.865Z,86.21
2023-12-16T01:14:43.875Z,85.69
2023-12-16T01:15:44.127Z,86.00
2023-12-16T01:16:43.838Z,86.00
2023-12-16T01:17:44.006Z,85.49
2023-12-16T01:18:43.962Z,86.00
2023-12-16T01:19:43.828Z,86.00
2023-12-16T01:20:43.789Z,86.00
2023-12-16T01:21:44.115Z,86.52
2023-12-16T01:22:43.773Z,86.52
2023-12-16T01:23:43.785Z,86.52
2023-12-16T01:24:44.103Z,86.82
2023-12-16T01:25:43.995Z,86.82
2023-12-16T01:26:43.803Z,87.13
2023-12-16T01:27:43.953Z,87.03
2023-12-16T01:28:43.712Z,86.82
2023-12-16T01:29:43.685Z,86.97
2023-12-16T01:30:44.003Z,86.66
2023-12-16T01:31:43.748Z,86.93
2023-12-16T01:32:43.665Z,86.97
2023-12-16T01:33:43.688Z,87.07
2023-12-16T01:34:43.660Z,87.07
2023-12-16T01:35:43.629Z,87.07
2023-12-16T01:36:43.646Z,87.27
2023-12-16T01:37:43.611Z,86.97
2023-12-16T01:38:43.612Z,86.87
2023-12-16T01:39:43.687Z,86.97
2023-12-16T01:40:43.732Z,86.45
2023-12-16T01:41:43.574Z,86.66
2023-12-16T01:42:43.588Z,86.87
2023-12-16T01:43:43.554Z,87.17
2023-12-16T01:44:43.530Z,87.59
2023-12-16T01:45:43.603Z,87.59
2023-12-16T01:46:43.558Z,87.90
2023-12-16T01:47:43.670Z,87.69
2023-12-16T01:48:43.774Z,87.90
2023-12-16T01:49:43.855Z,88.10
2023-12-16T01:50:43.470Z,88.20
2023-12-16T01:51:43.741Z,88.41
2023-12-16T01:52:43.455Z,88.20
2023-12-16T01:53:43.432Z,87.90
2023-12-16T01:54:43.471Z,87.90
2023-12-16T01:55:43.416Z,87.99
2023-12-16T01:56:43.406Z,88.20
2023-12-16T01:57:43.495Z,88.62
2023-12-16T01:58:43.421Z,88.45
2023-12-16T01:59:43.505Z,88.45
2023-12-16T02:00:43.572Z,88.35
2023-12-16T02:01:43.647Z,88.45
2023-12-16T02:02:43.380Z,88.76
2023-12-16T02:03:43.387Z,88.65
2023-12-16T02:04:43.376Z,88.14
2023-12-16T02:05:43.326Z,88.14
2023-12-16T02:06:43.391Z,87.17
2023-12-16T02:07:43.609Z,87.38
2023-12-16T02:08:43.262Z,87.48
2023-12-16T02:09:43.357Z,87.48
2023-12-16T02:10:43.540Z,87.32
2023-12-16T02:11:43.236Z,86.97
2023-12-16T02:12:43.247Z,87.27
2023-12-16T02:13:43.218Z,87.17
2023-12-16T02:14:43.200Z,87.17
2023-12-16T02:15:43.494Z,86.76
2023-12-16T02:16:43.182Z,86.87
2023-12-16T02:17:43.454Z,86.76
2023-12-16T02:18:43.205Z,86.66
2023-12-16T02:19:43.306Z,86.76
2023-12-16T02:20:43.153Z,87.11
2023-12-16T02:21:43.192Z,87.32
2023-12-16T02:22:43.113Z,87.42
2023-12-16T02:23:43.102Z,87.52
2023-12-16T02:24:43.670Z,87.63
2023-12-16T02:25:43.090Z,87.11
2023-12-16T02:26:43.067Z,86.80
2023-12-16T02:27:43.151Z,86.80
2023-12-16T02:28:43.050Z,86.35
2023-12-16T02:29:43.053Z,86.04
2023-12-16T02:30:43.106Z,85.52
2023-12-16T02:31:45.617Z,85.52
2023-12-16T02:32:43.227Z,85.42
2023-12-16T02:33:43.079Z,85.22
2023-12-16T02:34:43.421Z,85.11
2023-12-16T02:35:42.978Z,85.22
2023-12-16T02:36:42.963Z,85.31
2023-12-16T02:37:43.088Z,85.63
2023-12-16T02:38:42.940Z,85.42
2023-12-16T02:39:42.941Z,85.31
2023-12-16T02:40:42.907Z,85.11
2023-12-16T02:41:42.924Z,85.42
2023-12-16T02:42:42.907Z,85.52
2023-12-16T02:43:42.902Z,85.83
2023-12-16T02:44:42.870Z,85.31
2023-12-16T02:45:42.877Z,85.42
2023-12-16T02:46:42.933Z,85.52
2023-12-16T02:47:43.138Z,85.42
2023-12-16T02:48:42.861Z,85.11
2023-12-16T02:49:42.888Z,85.01
2023-12-16T02:50:43.059Z,85.11
2023-12-16T02:51:42.824Z,84.70
2023-12-16T02:52:42.803Z,84.39
2023-12-16T02:53:42.800Z,83.67
2023-12-16T02:54:42.789Z,83.77
2023-12-16T02:55:42.861Z,83.56
2023-12-16T02:56:42.772Z,83.67
2023-12-16T02:57:42.789Z,83.98
2023-12-16T02:58:42.725Z,83.87
2023-12-16T02:59:42.989Z,84.08
2023-12-16T03:00:42.704Z,83.77
2023-12-16T03:01:42.780Z,83.77
2023-12-16T03:02:42.691Z,83.98
2023-12-16T03:03:42.667Z,83.56
2023-12-16T03:04:42.664Z,83.26
2023-12-16T03:05:42.965Z,83.47
2023-12-16T03:06:42.637Z,83.87
2023-12-16T03:07:42.721Z,83.77
2023-12-16T03:08:42.615Z,83.98
2023-12-16T03:09:42.614Z,84.29
2023-12-16T03:10:42.585Z,83.67
2023-12-16T03:11:42.866Z,83.15
2023-12-16T03:12:42.565Z,83.26
2023-12-16T03:13:42.562Z,83.67
2023-12-16T03:14:42.549Z,83.77
2023-12-16T03:15:42.552Z,83.26
2023-12-16T03:16:42.535Z,83.67
2023-12-16T03:17:42.992Z,83.67
2023-12-16T03:18:42.781Z,83.77
2023-12-16T03:19:42.699Z,83.98
2023-12-16T03:20:42.491Z,84.08
2023-12-16T03:21:42.717Z,83.98
2023-12-16T03:22:42.454Z,84.19
2023-12-16T03:23:42.449Z,84.39
2023-12-16T03:24:42.436Z,83.87
2023-12-16T03:25:42.548Z,83.98
2023-12-16T03:26:42.430Z,83.67
2023-12-16T03:27:42.423Z,84.08
2023-12-16T03:28:42.411Z,83.77
2023-12-16T03:29:42.413Z,83.56
2023-12-16T03:30:42.480Z,83.26
2023-12-16T03:31:42.479Z,83.05
2023-12-16T03:32:42.409Z,82.95
2023-12-16T03:33:42.425Z,82.43
2023-12-16T03:34:42.397Z,82.95
2023-12-16T03:35:42.318Z,82.43
2023-12-16T03:36:42.293Z,82.64
2023-12-16T03:37:42.293Z,82.33
2023-12-16T03:38:42.279Z,82.02
2023-12-16T03:39:42.293Z,82.02
2023-12-16T03:40:42.329Z,81.47
2023-12-16T03:41:42.256Z,81.77
2023-12-16T03:42:42.485Z,81.67
2023-12-16T03:43:42.284Z,81.77
2023-12-16T03:44:42.420Z,81.71
2023-12-16T03:45:42.214Z,81.37
2023-12-16T03:46:42.208Z,81.67
2023-12-16T03:47:42.356Z,81.67
2023-12-16T03:48:42.244Z,81.67
2023-12-16T03:49:42.245Z,81.98
2023-12-16T03:50:42.163Z,82.23
2023-12-16T03:51:42.139Z,82.23
2023-12-16T03:52:42.134Z,81.40
2023-12-16T03:53:42.125Z,81.77
2023-12-16T03:54:42.140Z,81.67
2023-12-16T03:55:42.094Z,81.57
2023-12-16T03:56:42.087Z,82.12
2023-12-16T03:57:42.192Z,82.43
2023-12-16T03:58:42.082Z,82.84
2023-12-16T03:59:42.071Z,82.64
2023-12-16T04:00:42.093Z,82.12
2023-12-16T04:01:42.116Z,82.64
2023-12-16T04:02:42.055Z,82.43
2023-12-16T04:03:42.119Z,82.12
2023-12-16T04:04:42.027Z,81.61
2023-12-16T04:05:42.067Z,82.02
2023-12-16T04:06:41.971Z,82.02
2023-12-16T04:07:42.058Z,82.54
2023-12-16T04:08:41.948Z,82.23
2023-12-16T04:09:41.952Z,81.71
2023-12-16T04:10:41.938Z,81.81
2023-12-16T04:11:41.935Z,82.23
2023-12-16T04:12:41.926Z,82.02
2023-12-16T04:13:41.968Z,81.81
2023-12-16T04:14:41.887Z,81.61
2023-12-16T04:15:42.125Z,81.81
2023-12-16T04:16:41.876Z,81.40
2023-12-16T04:17:42.377Z,81.61
2023-12-16T04:18:41.946Z,82.12
2023-12-16T04:19:41.854Z,81.40
2023-12-16T04:20:41.847Z,81.51
2023-12-16T04:21:41.819Z,81.81
2023-12-16T04:22:41.826Z,81.40
2023-12-16T04:23:41.806Z,80.79
2023-12-16T04:24:41.788Z,80.33
2023-12-16T04:25:42.053Z,80.54
2023-12-16T04:26:41.782Z,80.44
2023-12-16T04:27:42.005Z,80.85
2023-12-16T04:28:41.736Z,80.33
2023-12-16T04:29:41.983Z,80.23
2023-12-16T04:30:41.849Z,80.23
2023-12-16T04:31:41.789Z,79.93
2023-12-16T04:32:41.722Z,79.41
2023-12-16T04:33:41.768Z,80.23
2023-12-16T04:34:42.007Z,80.44
2023-12-16T04:35:41.664Z,80.54
2023-12-16T04:36:41.648Z,80.44
2023-12-16T04:37:41.939Z,80.44
2023-12-16T04:38:41.626Z,79.93
2023-12-16T04:39:41.932Z,80.23
2023-12-16T04:40:41.621Z,80.33
2023-12-16T04:41:41.786Z,80.65
2023-12-16T04:42:41.580Z,80.75
2023-12-16T04:43:41.586Z,80.75
2023-12-16T04:44:41.570Z,80.89
2023-12-16T04:45:41.679Z,81.09
2023-12-16T04:46:41.538Z,81.09
2023-12-16T04:47:41.807Z,81.20
2023-12-16T04:48:41.849Z,80.79
2023-12-16T04:49:41.549Z,80.99
2023-12-16T04:50:41.763Z,80.89
2023-12-16T04:51:41.476Z,80.79
2023-12-16T04:52:41.470Z,80.33
2023-12-16T04:53:41.463Z,80.13
2023-12-16T04:54:41.450Z,80.75
2023-12-16T04:55:41.433Z,80.75
2023-12-16T04:56:41.445Z,80.44
2023-12-16T04:57:41.713Z,80.23
2023-12-16T04:58:41.434Z,79.82
2023-12-16T04:59:41.393Z,80.33
2023-12-16T05:00:41.420Z,80.33
2023-12-16T05:01:41.438Z,80.23
2023-12-16T05:02:41.381Z,80.85
2023-12-16T05:03:41.391Z,80.65
2023-12-16T05:04:41.387Z,81.30
2023-12-16T05:05:41.365Z,81.51
2023-12-16T05:06:41.319Z,81.40
2023-12-16T05:07:41.600Z,81.51
2023-12-16T05:08:41.346Z,81.30
2023-12-16T05:09:41.302Z,81.30
2023-12-16T05:10:41.532Z,81.51
2023-12-16T05:11:41.260Z,80.68
2023-12-16T05:12:41.270Z,80.68
2023-12-16T05:13:41.246Z,80.89
2023-12-16T05:14:41.223Z,81.20
2023-12-16T05:15:41.216Z,80.89
2023-12-16T05:16:41.226Z,80.79
2023-12-16T05:17:41.500Z,80.99
2023-12-16T05:18:41.222Z,81.30
2023-12-16T05:19:41.264Z,81.09
2023-12-16T05:20:41.164Z,80.58
2023-12-16T05:21:41.155Z,81.20
2023-12-16T05:22:41.145Z,80.99
2023-12-16T05:23:41.138Z,81.40
2023-12-16T05:24:41.119Z,81.71
2023-12-16T05:25:41.178Z,81.40
2023-12-16T05:26:41.116Z,81.71
2023-12-16T05:27:41.396Z,81.92
2023-12-16T05:28:41.076Z,81.40
2023-12-16T05:29:41.060Z,80.89
2023-12-16T05:30:41.111Z,80.68
2023-12-16T05:31:41.147Z,80.79
2023-12-16T05:32:41.118Z,80.79
2023-12-16T05:33:41.396Z,81.09
2023-12-16T05:34:41.388Z,80.68
2023-12-16T05:35:41.099Z,80.47
2023-12-16T05:36:40.995Z,79.86
2023-12-16T05:37:41.198Z,80.02
2023-12-16T05:38:40.975Z,80.37
2023-12-16T05:39:40.952Z,80.79
2023-12-16T05:40:41.283Z,80.89
2023-12-16T05:41:40.933Z,80.47
2023-12-16T05:42:40.923Z,80.47
2023-12-16T05:43:40.907Z,80.79
2023-12-16T05:44:41.181Z,80.79
2023-12-16T05:45:40.898Z,80.89
2023-12-16T05:46:40.891Z,81.40
2023-12-16T05:47:41.098Z,81.51
2023-12-16T05:48:40.954Z,81.20
2023-12-16T05:49:40.934Z,81.51
2023-12-16T05:50:41.123Z,80.99
2023-12-16T05:51:41.297Z,80.47
2023-12-16T05:52:40.824Z,81.40
2023-12-16T05:53:41.005Z,81.20
2023-12-16T05:54:40.918Z,80.79
2023-12-16T05:55:41.839Z,80.06
2023-12-16T05:56:40.780Z,80.58
2023-12-16T05:57:41.341Z,80.47
2023-12-16T05:58:40.785Z,80.58
2023-12-16T05:59:40.835Z,80.37
2023-12-16T06:00:40.745Z,80.89
2023-12-16T06:01:40.719Z,80.16
2023-12-16T06:02:40.747Z,81.09
2023-12-16T06:03:40.696Z,80.79
2023-12-16T06:04:40.669Z,80.06
2023-12-16T06:05:40.704Z,79.72
2023-12-16T06:06:40.658Z,80.27
2023-12-16T06:07:40.894Z,80.27
2023-12-16T06:08:40.660Z,80.68
2023-12-16T06:09:40.613Z,80.68
2023-12-16T06:10:40.717Z,79.96
2023-12-16T06:11:40.601Z,80.16
2023-12-16T06:12:40.604Z,80.37
2023-12-16T06:13:40.584Z,80.16
2023-12-16T06:14:40.565Z,79.96
2023-12-16T06:15:40.620Z,80.47
2023-12-16T06:16:40.682Z,80.06
2023-12-16T06:17:41.196Z,79.96
2023-12-16T06:18:40.620Z,79.75
2023-12-16T06:19:40.589Z,79.82
2023-12-16T06:20:40.502Z,79.82
2023-12-16T06:21:40.486Z,80.02
2023-12-16T06:22:40.496Z,80.23
2023-12-16T06:23:40.478Z,80.54
2023-12-16T06:24:40.454Z,80.37
2023-12-16T06:25:40.701Z,80.33
2023-12-16T06:26:40.467Z,80.37
2023-12-16T06:27:40.593Z,80.89
2023-12-16T06:28:40.421Z,80.37
2023-12-16T06:29:40.416Z,80.02
2023-12-16T06:30:40.688Z,79.51
2023-12-16T06:31:40.426Z,80.02
2023-12-16T06:32:40.412Z,80.65
2023-12-16T06:33:40.375Z,80.23
2023-12-16T06:34:40.413Z,80.23
2023-12-16T06:35:40.342Z,79.61
2023-12-16T06:36:40.332Z,79.72
2023-12-16T06:37:40.649Z,79.41
2023-12-16T06:38:40.303Z,79.30
2023-12-16T06:39:40.296Z,79.20
2023-12-16T06:40:40.316Z,79.41
2023-12-16T06:41:40.286Z,79.41
2023-12-16T06:42:40.255Z,79.72
2023-12-16T06:43:40.248Z,79.82
2023-12-16T06:44:40.526Z,80.23
2023-12-16T06:45:40.234Z,80.02
2023-12-16T06:46:40.308Z,80.02
2023-12-16T06:47:40.465Z,79.82
2023-12-16T06:48:40.339Z,79.20
2023-12-16T06:49:40.314Z,79.30
2023-12-16T06:50:40.176Z,79.51
2023-12-16T06:51:40.176Z,79.93
2023-12-16T06:52:40.149Z,79.10
2023-12-16T06:53:40.150Z,79.72
2023-12-16T06:54:40.134Z,79.51
2023-12-16T06:55:40.124Z,79.93
2023-12-16T06:56:40.112Z,79.00
2023-12-16T06:57:40.349Z,79.58
2023-12-16T06:58:40.080Z,79.30
2023-12-16T06:59:40.092Z,79.27
2023-12-16T07:00:40.077Z,79.27
2023-12-16T07:01:40.188Z,79.58
2023-12-16T07:02:40.038Z,80.13
2023-12-16T07:03:40.084Z,79.82
2023-12-16T07:04:40.048Z,79.93
2023-12-16T07:05:40.036Z,79.82
2023-12-16T07:06:39.991Z,80.13
2023-12-16T07:07:40.150Z,80.44
2023-12-16T07:08:39.992Z,80.54
2023-12-16T07:09:39.974Z,80.54
2023-12-16T07:10:39.964Z,79.93
2023-12-16T07:11:40.109Z,79.88
2023-12-16T07:12:39.938Z,80.13
2023-12-16T07:13:39.936Z,80.23
2023-12-16T07:14:39.913Z,80.75
2023-12-16T07:15:39.918Z,80.23
2023-12-16T07:16:39.892Z,80.23
2023-12-16T07:17:40.429Z,80.23
2023-12-16T07:18:39.909Z,79.99
2023-12-16T07:19:39.978Z,80.19
2023-12-16T07:20:39.849Z,80.30
2023-12-16T07:21:39.831Z,80.40
2023-12-16T07:22:39.985Z,80.19
2023-12-16T07:23:40.099Z,79.88
2023-12-16T07:24:39.801Z,80.61
2023-12-16T07:25:39.898Z,80.09
2023-12-16T07:26:39.800Z,80.51
2023-12-16T07:27:40.201Z,80.30
2023-12-16T07:28:39.761Z,80.71
2023-12-16T07:29:39.761Z,80.40
2023-12-16T07:30:39.828Z,79.99
2023-12-16T07:31:39.882Z,80.19
2023-12-16T07:32:39.901Z,80.40
2023-12-16T07:33:39.808Z,80.71
2023-12-16T07:34:39.826Z,80.81
2023-12-16T07:35:39.824Z,80.51
2023-12-16T07:36:39.714Z,80.81
2023-12-16T07:37:39.930Z,80.30
2023-12-16T07:38:39.664Z,79.99
2023-12-16T07:39:39.629Z,80.09
2023-12-16T07:40:39.953Z,80.30
2023-12-16T07:41:39.635Z,80.51
2023-12-16T07:42:40.890Z,80.61
2023-12-16T07:43:39.590Z,80.81
2023-12-16T07:44:39.850Z,80.61
2023-12-16T07:45:39.566Z,80.91
2023-12-16T07:46:39.576Z,81.33
2023-12-16T07:47:39.928Z,81.74
2023-12-16T07:48:39.628Z,81.43
2023-12-16T07:49:39.552Z,81.63
2023-12-16T07:50:39.532Z,82.15
2023-12-16T07:51:39.510Z,82.46
2023-12-16T07:52:39.492Z,82.56
2023-12-16T07:53:39.479Z,82.77
2023-12-16T07:54:39.471Z,82.50
2023-12-16T07:55:39.750Z,82.77
2023-12-16T07:56:39.450Z,82.05
2023-12-16T07:57:39.716Z,82.25
2023-12-16T07:58:39.446Z,82.15
2023-12-16T07:59:39.577Z,82.25
2023-12-16T08:00:39.808Z,81.95
2023-12-16T08:01:39.570Z,81.63
2023-12-16T08:02:39.795Z,81.74
2023-12-16T08:03:39.434Z,81.43
2023-12-16T08:04:39.499Z,81.95
2023-12-16T08:05:39.396Z,81.95
2023-12-16T08:06:39.480Z,81.95
2023-12-16T08:07:39.867Z,81.95
2023-12-16T08:08:39.321Z,81.53
2023-12-16T08:09:39.324Z,81.63
2023-12-16T08:10:39.329Z,82.05
2023-12-16T08:11:39.837Z,82.15
2023-12-16T08:12:39.288Z,82.25
2023-12-16T08:13:39.279Z,81.95
2023-12-16T08:14:39.278Z,82.15
2023-12-16T08:15:39.497Z,82.25
2023-12-16T08:16:39.230Z,82.15
2023-12-16T08:17:39.482Z,81.95
2023-12-16T08:18:39.304Z,82.25
2023-12-16T08:19:39.283Z,82.56
2023-12-16T08:20:39.187Z,82.35
2023-12-16T08:21:39.169Z,82.56
2023-12-16T08:22:39.230Z,83.07
2023-12-16T08:23:39.160Z,83.12
2023-12-16T08:24:39.146Z,82.81
2023-12-16T08:25:39.490Z,83.01
2023-12-16T08:26:39.149Z,83.01
2023-12-16T08:27:39.377Z,82.70
2023-12-16T08:28:39.117Z,83.22
2023-12-16T08:29:39.111Z,83.53
2023-12-16T08:30:39.142Z,83.63
2023-12-16T08:31:39.111Z,83.84
2023-12-16T08:32:39.109Z,83.94
2023-12-16T08:33:39.128Z,83.94
2023-12-16T08:34:39.132Z,83.94
2023-12-16T08:35:39.059Z,83.77
2023-12-16T08:36:39.012Z,83.77
2023-12-16T08:37:39.548Z,83.73
2023-12-16T08:38:39.090Z,83.67
2023-12-16T08:39:38.997Z,83.32
2023-12-16T08:40:39.037Z,83.53
2023-12-16T08:41:38.962Z,83.73
2023-12-16T08:42:38.954Z,83.73
2023-12-16T08:43:38.927Z,84.05
2023-12-16T08:44:38.925Z,83.53
2023-12-16T08:45:38.918Z,83.73
2023-12-16T08:46:39.244Z,83.94
2023-12-16T08:47:39.186Z,83.53
2023-12-16T08:48:38.902Z,83.53
2023-12-16T08:49:38.955Z,83.94
2023-12-16T08:50:38.864Z,83.63
2023-12-16T08:51:38.864Z,84.05
2023-12-16T08:52:38.886Z,83.84
2023-12-16T08:53:38.830Z,83.94
2023-12-16T08:54:38.830Z,84.25
2023-12-16T08:55:39.110Z,84.77
2023-12-16T08:56:38.834Z,84.77
2023-12-16T08:57:39.092Z,84.87
2023-12-16T08:58:38.774Z,84.87
2023-12-16T08:59:38.790Z,84.45
2023-12-16T09:00:38.931Z,84.56
2023-12-16T09:01:38.798Z,84.56
2023-12-16T09:02:38.737Z,84.00
2023-12-16T09:03:38.768Z,84.31
2023-12-16T09:04:38.773Z,83.90
2023-12-16T09:05:38.727Z,83.80
2023-12-16T09:06:38.685Z,83.90
2023-12-16T09:07:39.085Z,84.31
2023-12-16T09:08:38.680Z,84.17
2023-12-16T09:09:38.653Z,82.21
2023-12-16T09:10:38.745Z,82.18
2023-12-16T09:11:38.645Z,82.48
2023-12-16T09:12:38.641Z,81.97
2023-12-16T09:13:38.670Z,81.97
2023-12-16T09:14:38.790Z,81.93
2023-12-16T09:15:38.689Z,81.21
2023-12-16T09:16:38.673Z,79.98
2023-12-16T09:17:38.803Z,79.67
2023-12-16T09:18:38.782Z,80.19
2023-12-16T09:19:38.774Z,80.60
2023-12-16T09:20:38.618Z,80.08
2023-12-16T09:21:38.536Z,80.49
2023-12-16T09:22:38.628Z,80.08
2023-12-16T09:23:38.600Z,80.39
2023-12-16T09:24:38.519Z,80.39
2023-12-16T09:25:38.503Z,80.49
2023-12-16T09:26:38.740Z,80.39
2023-12-16T09:27:38.740Z,80.19
2023-12-16T09:28:38.548Z,80.49
2023-12-16T09:29:38.589Z,79.57
2023-12-16T09:30:38.462Z,79.57
2023-12-16T09:31:38.515Z,79.47
2023-12-16T09:32:38.640Z,79.02
2023-12-16T09:33:38.547Z,79.12
2023-12-16T09:34:38.391Z,79.02
2023-12-16T09:35:38.366Z,79.02
2023-12-16T09:36:38.367Z,78.20
2023-12-16T09:37:38.728Z,78.88
2023-12-16T09:38:38.357Z,79.80
2023-12-16T09:39:38.312Z,80.32
2023-12-16T09:40:38.386Z,80.01
2023-12-16T09:41:38.324Z,79.49
2023-12-16T09:42:38.302Z,79.49
2023-12-16T09:43:38.327Z,79.08
2023-12-16T09:44:38.652Z,79.39
2023-12-16T09:45:38.257Z,79.80
2023-12-16T09:46:38.359Z,78.88
2023-12-16T09:47:38.647Z,79.05
2023-12-16T09:48:38.308Z,78.94
2023-12-16T09:49:38.341Z,79.56
2023-12-16T09:50:38.227Z,79.36
2023-12-16T09:51:38.739Z,78.94
2023-12-16T09:52:38.209Z,77.40
2023-12-16T09:53:38.167Z,77.17
2023-12-16T09:54:38.160Z,77.47
2023-12-16T09:55:38.173Z,76.86
2023-12-16T09:56:38.150Z,77.58
2023-12-16T09:57:38.291Z,76.45
2023-12-16T09:58:38.151Z,76.86
2023-12-16T09:59:38.108Z,77.23
2023-12-16T10:00:38.083Z,76.10
2023-12-16T10:01:38.308Z,76.00
2023-12-16T10:02:38.094Z,75.90
2023-12-16T10:03:38.057Z,75.90
2023-12-16T10:04:38.142Z,76.20
2023-12-16T10:05:38.074Z,75.59
2023-12-16T10:06:38.087Z,75.69
2023-12-16T10:07:38.337Z,75.90
2023-12-16T10:08:38.018Z,74.98
2023-12-16T10:09:38.063Z,75.49
2023-12-16T10:10:38.071Z,74.84
2023-12-16T10:11:37.970Z,75.86
2023-12-16T10:12:37.965Z,74.94
2023-12-16T10:13:37.954Z,75.73
2023-12-16T10:14:37.946Z,73.98
2023-12-16T10:15:37.940Z,74.49
2023-12-16T10:16:37.933Z,73.68
2023-12-16T10:17:38.227Z,74.19
2023-12-16T10:18:37.925Z,73.36
2023-12-16T10:19:37.917Z,73.88
2023-12-16T10:20:37.960Z,74.08
2023-12-16T10:21:37.866Z,74.08
2023-12-16T10:22:37.894Z,73.61
2023-12-16T10:23:37.844Z,73.40
2023-12-16T10:24:37.851Z,73.61
2023-12-16T10:25:37.906Z,73.50
2023-12-16T10:26:37.809Z,73.81
2023-12-16T10:27:38.002Z,73.61
2023-12-16T10:28:37.804Z,74.22
2023-12-16T10:29:38.690Z,74.22
2023-12-16T10:30:37.764Z,75.24
2023-12-16T10:31:37.771Z,73.71
2023-12-16T10:32:37.795Z,74.57
2023-12-16T10:33:38.009Z,73.85
2023-12-16T10:34:37.829Z,74.87
2023-12-16T10:35:37.712Z,75.69
2023-12-16T10:36:37.713Z,75.08
2023-12-16T10:37:38.078Z,74.66
2023-12-16T10:38:37.688Z,74.87
2023-12-16T10:39:37.734Z,74.98
2023-12-16T10:40:37.729Z,74.66
2023-12-16T10:41:37.642Z,75.24
2023-12-16T10:42:37.625Z,74.94
2023-12-16T10:43:37.744Z,75.24
2023-12-16T10:44:37.617Z,76.27
2023-12-16T10:45:37.600Z,75.96
2023-12-16T10:46:37.755Z,76.07
2023-12-16T10:47:37.632Z,76.78
2023-12-16T10:48:37.788Z,75.86
2023-12-16T10:49:37.650Z,76.58
2023-12-16T10:50:38.266Z,76.89
2023-12-16T10:51:37.524Z,75.93
2023-12-16T10:52:37.559Z,75.31
2023-12-16T10:53:37.509Z,74.80
2023-12-16T10:54:37.527Z,74.08
2023-12-16T10:55:37.597Z,73.88
2023-12-16T10:56:38.093Z,74.60
2023-12-16T10:57:37.477Z,74.80
2023-12-16T10:58:37.478Z,74.19
2023-12-16T10:59:37.471Z,75.21
2023-12-16T11:00:37.459Z,75.11
2023-12-16T11:01:37.505Z,75.52
2023-12-16T11:02:37.437Z,75.31
2023-12-16T11:03:37.419Z,74.39
2023-12-16T11:04:37.464Z,74.60
2023-12-16T11:05:37.455Z,74.39
2023-12-16T11:06:37.383Z,74.08
2023-12-16T11:07:37.680Z,75.52
2023-12-16T11:08:37.357Z,75.31
2023-12-16T11:09:37.325Z,74.90
2023-12-16T11:10:37.482Z,76.20
2023-12-16T11:11:37.325Z,76.10
2023-12-16T11:12:37.394Z,75.18
2023-12-16T11:13:37.330Z,75.79
2023-12-16T11:14:37.291Z,74.56
2023-12-16T11:15:37.275Z,74.77
2023-12-16T11:16:37.342Z,74.36
2023-12-16T11:17:37.573Z,73.71
2023-12-16T11:18:37.288Z,73.91
2023-12-16T11:19:37.290Z,73.88
2023-12-16T11:20:37.226Z,73.36
2023-12-16T11:21:37.214Z,72.65
2023-12-16T11:22:37.235Z,72.72
2023-12-16T11:23:37.195Z,72.62
2023-12-16T11:24:37.177Z,73.44
2023-12-16T11:25:37.296Z,73.54
2023-12-16T11:26:37.258Z,72.69
2023-12-16T11:27:37.413Z,71.66
2023-12-16T11:28:37.238Z,72.07
2023-12-16T11:29:37.124Z,72.17
2023-12-16T11:30:37.185Z,72.04
2023-12-16T11:31:37.115Z,71.25
2023-12-16T11:32:37.220Z,71.97
2023-12-16T11:33:37.158Z,71.63
2023-12-16T11:34:37.150Z,73.57
2023-12-16T11:35:37.062Z,72.41
2023-12-16T11:36:37.034Z,71.33
2023-12-16T11:37:37.266Z,71.59
2023-12-16T11:38:37.021Z,72.31
2023-12-16T11:39:37.019Z,72.41
2023-12-16T11:40:37.014Z,72.41
2023-12-16T11:41:36.971Z,72.00
2023-12-16T11:42:36.986Z,71.91
2023-12-16T11:43:37.029Z,72.04
2023-12-16T11:44:36.942Z,73.23
2023-12-16T11:45:36.988Z,72.62
2023-12-16T11:46:37.030Z,73.23
2023-12-16T11:47:36.943Z,71.91
2023-12-16T11:48:36.920Z,72.21
2023-12-16T11:49:36.932Z,72.72
2023-12-16T11:50:36.879Z,73.23
2023-12-16T11:51:36.864Z,73.23
2023-12-16T11:52:37.041Z,72.92
2023-12-16T11:53:36.857Z,72.82
2023-12-16T11:54:36.834Z,72.11
2023-12-16T11:55:36.932Z,72.41
2023-12-16T11:56:36.837Z,72.11
2023-12-16T11:57:36.820Z,72.00
2023-12-16T11:58:36.970Z,71.91
2023-12-16T11:59:37.040Z,71.94
2023-12-16T12:00:36.805Z,71.73
2023-12-16T12:01:37.166Z,72.75
2023-12-16T12:02:36.838Z,73.16
2023-12-16T12:03:36.793Z,72.96
2023-12-16T12:04:36.772Z,74.18
2023-12-16T12:05:36.878Z,74.56
2023-12-16T12:06:36.725Z,74.97
2023-12-16T12:07:36.769Z,74.87
2023-12-16T12:08:36.723Z,75.07
2023-12-16T12:09:36.681Z,74.15
2023-12-16T12:10:36.743Z,73.77
2023-12-16T12:11:36.655Z,74.69
2023-12-16T12:12:36.988Z,74.80
2023-12-16T12:13:36.643Z,75.21
2023-12-16T12:14:36.631Z,75.71
2023-12-16T12:15:36.602Z,75.71
2023-12-16T12:16:36.653Z,75.00
2023-12-16T12:17:36.657Z,75.21
2023-12-16T12:18:36.659Z,75.31
2023-12-16T12:19:36.628Z,75.34
2023-12-16T12:20:36.586Z,76.16
2023-12-16T12:21:36.626Z,76.06
2023-12-16T12:22:36.643Z,76.16
2023-12-16T12:23:36.518Z,76.47
2023-12-16T12:24:36.499Z,75.65
2023-12-16T12:25:36.523Z,75.65
2023-12-16T12:26:36.474Z,76.78
2023-12-16T12:27:36.589Z,77.19
2023-12-16T12:28:36.494Z,77.59
2023-12-16T12:29:36.499Z,78.11
2023-12-16T12:30:36.502Z,78.00
2023-12-16T12:31:36.438Z,77.70
2023-12-16T12:32:36.682Z,77.80
2023-12-16T12:33:36.680Z,78.00
2023-12-16T12:34:36.455Z,76.57
2023-12-16T12:35:36.486Z,76.78
2023-12-16T12:36:36.369Z,77.70
2023-12-16T12:37:36.685Z,77.80
2023-12-16T12:38:36.393Z,78.41
2023-12-16T12:39:36.344Z,78.00
2023-12-16T12:40:36.341Z,78.61
2023-12-16T12:41:36.329Z,79.02
2023-12-16T12:42:36.312Z,77.08
2023-12-16T12:43:36.326Z,77.29
2023-12-16T12:44:36.357Z,77.70
2023-12-16T12:45:36.294Z,77.39
2023-12-16T12:46:36.273Z,77.70
2023-12-16T12:47:36.444Z,77.59
2023-12-16T12:48:36.355Z,78.31
2023-12-16T12:49:36.464Z,79.13
2023-12-16T12:50:36.220Z,78.52
2023-12-16T12:51:36.230Z,78.52
2023-12-16T12:53:16.850Z,78.20